createdAt,value
2023-09-05T00:02:15.444Z,7.75
2023-09-05T00:04:46.102Z,8.77
2023-09-05T00:07:15.352Z,8.60
2023-09-05T00:09:43.880Z,8.30
2023-09-05T00:12:12.619Z,9.55
2023-09-05T00:14:42.538Z,8.18
2023-09-05T00:17:11.065Z,7.13
2023-09-05T00:19:39.748Z,8.73
2023-09-05T00:22:08.167Z,8.45
2023-09-05T00:24:39.480Z,7.32
2023-09-05T00:27:11.351Z,8.00
2023-09-05T00:29:41.965Z,8.13
2023-09-05T00:32:11.387Z,7.30
2023-09-05T00:34:40.701Z,9.70
2023-09-05T00:37:10.561Z,7.93
2023-09-05T00:39:41.425Z,7.57
2023-09-05T00:42:12.292Z,7.25
2023-09-05T00:44:42.775Z,7.38
2023-09-05T00:47:13.651Z,7.15
2023-09-05T00:49:48.510Z,7.20
2023-09-05T00:52:17.717Z,7.65
2023-09-05T00:54:46.246Z,6.43
2023-09-05T00:57:16.326Z,6.80
2023-09-05T00:59:46.270Z,9.48
2023-09-05T01:02:14.928Z,7.22
2023-09-05T01:04:44.749Z,9.30
2023-09-05T01:07:19.961Z,9.15
2023-09-05T01:09:55.936Z,10.10
2023-09-05T01:12:25.179Z,7.03
2023-09-05T01:14:55.360Z,8.38
2023-09-05T01:17:23.746Z,6.80
2023-09-05T01:19:56.373Z,8.75
2023-09-05T01:22:30.916Z,7.85
2023-09-05T01:25:00.924Z,8.00
2023-09-05T01:27:30.089Z,8.40
2023-09-05T01:29:59.372Z,8.07
2023-09-05T01:32:28.039Z,8.75
2023-09-05T01:34:56.568Z,6.93
2023-09-05T01:37:25.988Z,7.88
2023-09-05T01:39:54.662Z,7.68
2023-09-05T01:42:24.452Z,7.38
2023-09-05T01:44:52.969Z,10.20
2023-09-05T01:47:21.500Z,10.45
2023-09-05T01:49:50.150Z,8.77
2023-09-05T01:52:18.849Z,7.80
2023-09-05T01:54:47.300Z,7.10
2023-09-05T01:57:15.899Z,8.55
2023-09-05T01:59:45.633Z,8.27
2023-09-05T02:02:14.345Z,8.10
2023-09-05T02:04:42.808Z,8.77
2023-09-05T02:07:11.411Z,8.55
2023-09-05T02:09:39.982Z,8.20
2023-09-05T02:12:08.767Z,8.60
2023-09-05T02:14:37.753Z,10.05
2023-09-05T02:17:07.680Z,7.55
2023-09-05T02:19:36.417Z,7.75
2023-09-05T02:22:05.213Z,8.95
2023-09-05T02:24:33.909Z,8.55
2023-09-05T02:27:03.256Z,9.02
2023-09-05T02:29:33.633Z,8.20
2023-09-05T02:32:02.156Z,9.73
2023-09-05T02:34:32.030Z,8.15
2023-09-05T02:37:00.745Z,11.43
2023-09-05T02:39:30.834Z,8.50
2023-09-05T02:41:59.369Z,9.70
2023-09-05T02:44:27.899Z,9.02
2023-09-05T02:46:56.433Z,8.13
2023-09-05T02:49:24.937Z,8.95
2023-09-05T02:51:54.860Z,9.02
2023-09-05T02:54:23.309Z,10.20
2023-09-05T02:56:52.006Z,9.30
2023-09-05T02:59:20.733Z,8.57
2023-09-05T03:01:49.300Z,10.40
2023-09-05T03:04:17.890Z,7.85
2023-09-05T03:06:47.215Z,9.07
2023-09-05T03:09:17.127Z,9.90
2023-09-05T03:11:45.554Z,9.05
2023-09-05T03:14:14.119Z,9.07
2023-09-05T03:16:42.575Z,9.63
2023-09-05T03:19:13.280Z,9.52
2023-09-05T03:21:41.808Z,9.68
2023-09-05T03:24:10.308Z,8.80
2023-09-05T03:26:40.310Z,8.30
2023-09-05T03:29:09.139Z,9.35
2023-09-05T03:31:37.662Z,10.73
2023-09-05T03:34:06.213Z,9.75
2023-09-05T03:36:34.996Z,12.02
2023-09-05T03:39:03.788Z,8.93
2023-09-05T03:41:33.438Z,9.45
2023-09-05T03:44:03.356Z,9.50
2023-09-05T03:46:31.829Z,9.57
2023-09-05T03:49:00.474Z,11.52
2023-09-05T03:51:31.083Z,10.82
2023-09-05T03:54:01.331Z,9.68
2023-09-05T03:56:29.854Z,9.60
2023-09-05T03:58:58.419Z,9.77
2023-09-05T04:01:28.576Z,9.15
2023-09-05T04:03:57.120Z,10.88
2023-09-05T04:06:25.569Z,10.85
2023-09-05T04:08:54.102Z,9.65
2023-09-05T04:11:22.512Z,10.15
2023-09-05T04:13:50.886Z,11.02
2023-09-05T04:16:19.416Z,10.18
2023-09-05T04:18:49.399Z,9.32
2023-09-05T04:21:17.998Z,12.82
2023-09-05T04:23:46.473Z,9.48
2023-09-05T04:26:16.241Z,10.13
2023-09-05T04:28:44.860Z,9.05
2023-09-05T04:31:19.658Z,11.07
2023-09-05T04:33:51.445Z,10.32
2023-09-05T04:36:19.979Z,11.05
2023-09-05T04:38:51.102Z,9.40
2023-09-05T04:41:21.546Z,9.95
2023-09-05T04:43:51.700Z,9.02
2023-09-05T04:46:20.195Z,10.23
2023-09-05T04:48:50.481Z,9.32
2023-09-05T04:51:19.112Z,9.00
2023-09-05T04:53:47.686Z,12.60
2023-09-05T04:56:16.126Z,9.82
2023-09-05T04:58:46.591Z,10.82
2023-09-05T05:01:16.844Z,10.63
2023-09-05T05:03:45.426Z,10.43
2023-09-05T05:06:15.457Z,9.43
2023-09-05T05:08:43.964Z,9.57
2023-09-05T05:11:12.437Z,10.93
2023-09-05T05:13:40.986Z,9.15
2023-09-05T05:16:09.496Z,11.70
2023-09-05T05:18:38.141Z,10.68
2023-09-05T05:21:06.661Z,11.07
2023-09-05T05:23:36.525Z,9.30
2023-09-05T05:26:05.005Z,11.25
2023-09-05T05:28:33.457Z,10.65
2023-09-05T05:31:02.014Z,11.30
2023-09-05T05:33:30.518Z,9.07
2023-09-05T05:35:59.555Z,10.32
2023-09-05T05:38:28.435Z,11.95
2023-09-05T05:40:59.411Z,10.23
2023-09-05T05:43:30.572Z,10.15
2023-09-05T05:45:59.160Z,8.60
2023-09-05T05:48:28.761Z,9.10
2023-09-05T05:50:58.242Z,9.43
2023-09-05T05:53:27.223Z,9.13
2023-09-05T05:55:55.763Z,9.38
2023-09-05T05:58:25.971Z,9.43
2023-09-05T06:00:54.779Z,10.50
2023-09-05T06:03:23.838Z,10.68
2023-09-05T06:05:53.437Z,11.05
2023-09-05T06:08:21.911Z,9.98
2023-09-05T06:10:50.665Z,10.30
2023-09-05T06:13:19.142Z,10.73
2023-09-05T06:15:49.559Z,8.00
2023-09-05T06:18:18.293Z,8.82
2023-09-05T06:20:46.805Z,8.27
2023-09-05T06:23:15.385Z,8.18
2023-09-05T06:25:44.167Z,9.35
2023-09-05T06:28:12.563Z,10.32
2023-09-05T06:30:41.079Z,11.88
2023-09-05T06:33:10.979Z,8.90
2023-09-05T06:35:39.508Z,9.68
2023-09-05T06:38:09.428Z,9.45
2023-09-05T06:40:38.068Z,9.43
2023-09-05T06:43:06.627Z,9.35
2023-09-05T06:45:35.710Z,9.55
2023-09-05T06:48:04.583Z,8.85
2023-09-05T06:50:34.656Z,7.75
2023-09-05T06:53:03.291Z,9.10
2023-09-05T06:55:36.306Z,9.77
2023-09-05T06:58:05.733Z,9.10
2023-09-05T07:00:35.070Z,8.55
2023-09-05T07:03:03.757Z,9.13
2023-09-05T07:05:34.335Z,9.70
2023-09-05T07:08:02.904Z,11.57
2023-09-05T07:10:31.272Z,9.40
2023-09-05T07:12:59.852Z,8.73
2023-09-05T07:15:28.183Z,7.22
2023-09-05T07:17:56.696Z,10.40
2023-09-05T07:20:25.542Z,8.50
2023-09-05T07:22:55.475Z,7.22
2023-09-05T07:25:24.049Z,7.50
2023-09-05T07:27:53.080Z,8.50
2023-09-05T07:30:21.884Z,8.90
2023-09-05T07:32:50.477Z,7.07
2023-09-05T07:35:19.449Z,8.88
2023-09-05T07:37:48.031Z,7.78
2023-09-05T07:40:18.455Z,7.50
2023-09-05T07:42:46.825Z,8.43
2023-09-05T07:45:16.012Z,7.78
2023-09-05T07:47:44.745Z,9.98
2023-09-05T07:50:13.672Z,7.47
2023-09-05T07:52:42.329Z,10.13
2023-09-05T07:55:11.087Z,6.32
2023-09-05T07:57:41.002Z,6.18
2023-09-05T08:00:16.172Z,8.60
2023-09-05T08:02:45.309Z,6.70
2023-09-05T08:05:14.166Z,8.07
2023-09-05T08:07:42.957Z,5.32
2023-09-05T08:10:11.877Z,6.90
2023-09-05T08:12:41.909Z,6.15
2023-09-05T08:15:11.298Z,5.45
2023-09-05T08:17:40.100Z,6.32
2023-09-05T08:20:09.554Z,4.10
2023-09-05T08:22:40.638Z,7.10
2023-09-05T08:25:11.225Z,6.60
2023-09-05T08:27:43.210Z,6.03
2023-09-05T08:30:12.938Z,4.68
2023-09-05T08:32:41.488Z,4.63
2023-09-05T08:35:11.466Z,5.07
2023-09-05T08:37:40.537Z,6.57
2023-09-05T08:40:11.115Z,8.52
2023-09-05T08:42:41.962Z,6.55
2023-09-05T08:45:14.268Z,6.68
2023-09-05T08:47:43.139Z,6.07
2023-09-05T08:50:12.971Z,6.18
2023-09-05T08:52:44.246Z,5.55
2023-09-05T08:55:15.335Z,6.57
2023-09-05T08:57:49.201Z,6.68
2023-09-05T09:00:19.718Z,6.35
2023-09-05T09:02:48.368Z,6.38
2023-09-05T09:05:16.816Z,6.05
2023-09-05T09:07:45.240Z,5.28
2023-09-05T09:10:19.990Z,5.18
2023-09-05T09:12:53.240Z,6.63
2023-09-05T09:15:22.311Z,5.50
2023-09-05T09:17:52.420Z,5.50
2023-09-05T09:20:24.138Z,5.68
2023-09-05T09:22:52.711Z,6.53
2023-09-05T09:25:22.699Z,6.45
2023-09-05T09:27:56.423Z,8.13
2023-09-05T09:30:25.643Z,6.38
2023-09-05T09:32:54.879Z,7.53
2023-09-05T09:35:23.942Z,6.68
2023-09-05T09:37:52.361Z,5.57
2023-09-05T09:40:21.058Z,7.85
2023-09-05T09:42:51.260Z,5.82
2023-09-05T09:45:21.987Z,5.30
2023-09-05T09:47:53.232Z,5.25
2023-09-05T09:50:22.230Z,5.82
2023-09-05T09:52:54.622Z,5.43
2023-09-05T09:55:26.446Z,5.43
2023-09-05T09:57:59.294Z,5.77
2023-09-05T10:00:36.529Z,6.25
2023-09-05T10:03:09.935Z,3.25
2023-09-05T10:05:42.732Z,5.82
2023-09-05T10:08:12.081Z,6.18
2023-09-05T10:10:41.016Z,5.28
2023-09-05T10:13:11.102Z,5.05
2023-09-05T10:15:42.047Z,4.72
2023-09-05T10:18:11.556Z,6.43
2023-09-05T10:20:42.336Z,5.72
2023-09-05T10:23:10.988Z,5.25
2023-09-05T10:25:42.069Z,6.10
2023-09-05T10:28:10.941Z,5.18
2023-09-05T10:30:44.210Z,4.78
2023-09-05T10:33:16.514Z,4.75
2023-09-05T10:35:46.599Z,5.38
2023-09-05T10:38:15.755Z,4.50
2023-09-05T10:40:44.675Z,5.03
2023-09-05T10:43:24.109Z,5.40
2023-09-05T10:46:01.975Z,7.25
2023-09-05T10:48:42.334Z,6.15
2023-09-05T10:51:15.842Z,3.75
2023-09-05T10:53:45.480Z,5.45
2023-09-05T10:56:42.816Z,5.95
2023-09-05T10:59:12.393Z,4.63
2023-09-05T11:01:54.117Z,5.65
2023-09-05T11:04:33.382Z,4.53
2023-09-05T11:07:04.770Z,5.32
2023-09-05T11:09:43.097Z,3.92
2023-09-05T11:12:12.340Z,3.15
2023-09-05T11:14:41.966Z,4.55
2023-09-05T11:17:16.503Z,4.50
2023-09-05T11:19:47.697Z,2.63
2023-09-05T11:22:20.004Z,4.43
2023-09-05T11:24:50.175Z,4.93
2023-09-05T11:27:23.939Z,4.88
2023-09-05T11:29:57.748Z,2.75
2023-09-05T11:32:32.990Z,3.85
2023-09-05T11:35:02.674Z,6.55
2023-09-05T11:37:31.639Z,4.13
2023-09-05T11:40:12.431Z,6.72
2023-09-05T11:42:41.473Z,3.05
2023-09-05T11:45:19.803Z,4.85
2023-09-05T11:47:53.361Z,6.40
2023-09-05T11:50:22.453Z,3.65
2023-09-05T11:52:53.371Z,6.32
2023-09-05T11:55:24.850Z,3.90
2023-09-05T11:57:54.829Z,2.17
2023-09-05T12:00:24.639Z,3.58
2023-09-05T12:02:55.621Z,3.67
2023-09-05T12:05:24.741Z,2.30
2023-09-05T12:07:53.915Z,5.07
2023-09-05T12:10:23.162Z,3.58
2023-09-05T12:12:55.627Z,4.00
2023-09-05T12:15:31.754Z,4.95
2023-09-05T12:18:05.324Z,2.58
2023-09-05T12:20:34.576Z,2.92
2023-09-05T12:23:04.099Z,4.53
2023-09-05T12:25:42.794Z,4.07
2023-09-05T12:28:17.458Z,4.45
2023-09-05T12:30:46.088Z,3.30
2023-09-05T12:33:16.176Z,6.95
2023-09-05T12:35:45.719Z,3.30
2023-09-05T12:38:14.383Z,4.53
2023-09-05T12:40:45.306Z,2.67
2023-09-05T12:43:13.673Z,2.85
2023-09-05T12:45:44.608Z,4.68
2023-09-05T12:48:13.136Z,5.47
2023-09-05T12:50:46.012Z,4.82
2023-09-05T12:53:14.576Z,3.03
2023-09-05T12:55:46.417Z,4.18
2023-09-05T12:58:14.820Z,3.35
2023-09-05T13:00:43.707Z,4.78
2023-09-05T13:03:13.494Z,9.10
2023-09-05T13:05:43.627Z,7.32
2023-09-05T13:08:12.261Z,6.65
2023-09-05T13:10:41.707Z,5.15
2023-09-05T13:13:10.241Z,5.47
2023-09-05T13:15:41.641Z,6.03
2023-09-05T13:18:10.183Z,9.07
2023-09-05T13:20:38.838Z,2.00
2023-09-05T13:23:08.734Z,5.07
2023-09-05T13:25:38.670Z,4.20
2023-09-05T13:28:08.090Z,4.88
2023-09-05T13:30:37.098Z,4.90
2023-09-05T13:33:06.636Z,7.72
2023-09-05T13:35:36.893Z,9.55
2023-09-05T13:38:06.057Z,5.47
2023-09-05T13:40:36.075Z,5.47
2023-09-05T13:43:04.650Z,6.75
2023-09-05T13:45:33.701Z,5.10
2023-09-05T13:48:02.375Z,4.03
2023-09-05T13:50:31.038Z,4.57
2023-09-05T13:52:59.512Z,4.75
2023-09-05T13:55:29.170Z,5.25
2023-09-05T13:57:59.013Z,7.88
2023-09-05T14:00:27.537Z,5.18
2023-09-05T14:02:56.181Z,4.97
2023-09-05T14:05:25.183Z,5.15
2023-09-05T14:07:53.738Z,4.18
2023-09-05T14:10:22.406Z,4.25
2023-09-05T14:12:50.792Z,3.58
2023-09-05T14:15:22.624Z,4.85
2023-09-05T14:17:51.314Z,5.07
2023-09-05T14:20:19.945Z,4.57
2023-09-05T14:22:48.458Z,4.05
2023-09-05T14:25:16.968Z,6.38
2023-09-05T14:27:45.445Z,2.58
2023-09-05T14:30:14.316Z,5.68
2023-09-05T14:32:47.082Z,2.78
2023-09-05T14:35:15.535Z,4.10
2023-09-05T14:37:43.956Z,4.13
2023-09-05T14:40:13.416Z,8.30
2023-09-05T14:42:41.947Z,3.85
2023-09-05T14:45:12.056Z,3.40
2023-09-05T14:47:41.704Z,2.88
2023-09-05T14:50:12.337Z,3.60
2023-09-05T14:52:40.902Z,3.65
2023-09-05T14:55:11.473Z,5.68
2023-09-05T14:57:40.576Z,3.55
2023-09-05T15:00:12.116Z,1.67
2023-09-05T15:02:40.754Z,3.33
2023-09-05T15:05:09.967Z,3.38
2023-09-05T15:07:40.564Z,2.17
2023-09-05T15:10:09.817Z,3.00
2023-09-05T15:12:38.655Z,3.65
2023-09-05T15:15:08.351Z,2.30
2023-09-05T15:17:37.820Z,3.03
2023-09-05T15:20:06.973Z,4.40
2023-09-05T15:22:35.473Z,6.35
2023-09-05T15:25:15.960Z,3.42
2023-09-05T15:27:45.501Z,2.28
2023-09-05T15:30:17.365Z,5.15
2023-09-05T15:32:47.436Z,3.50
2023-09-05T15:35:16.712Z,2.85
2023-09-05T15:37:45.176Z,3.50
2023-09-05T15:40:15.850Z,2.88
2023-09-05T15:42:44.653Z,3.33
2023-09-05T15:45:13.391Z,4.18
2023-09-05T15:47:43.014Z,4.22
2023-09-05T15:50:12.326Z,3.28
2023-09-05T15:52:40.750Z,3.40
2023-09-05T15:55:09.850Z,4.35
2023-09-05T15:57:41.108Z,3.80
2023-09-05T16:00:10.727Z,5.20
2023-09-05T16:02:39.366Z,4.20
2023-09-05T16:05:08.084Z,5.85
2023-09-05T16:07:36.576Z,4.70
2023-09-05T16:10:07.211Z,5.20
2023-09-05T16:12:36.731Z,4.90
2023-09-05T16:15:07.917Z,3.20
2023-09-05T16:17:37.107Z,4.28
2023-09-05T16:20:06.223Z,7.05
2023-09-05T16:22:34.776Z,6.03
2023-09-05T16:25:03.520Z,4.80
2023-09-05T16:27:32.395Z,5.55
2023-09-05T16:30:00.792Z,4.13
2023-09-05T16:32:30.710Z,3.47
2023-09-05T16:34:59.155Z,5.25
2023-09-05T16:37:27.614Z,2.95
2023-09-05T16:39:56.090Z,5.15
2023-09-05T16:42:24.644Z,4.63
2023-09-05T16:44:53.094Z,7.50
2023-09-05T16:47:22.004Z,3.53
2023-09-05T16:49:51.941Z,5.63
2023-09-05T16:52:21.677Z,4.72
2023-09-05T16:54:51.035Z,4.70
2023-09-05T16:57:19.887Z,4.93
2023-09-05T16:59:48.932Z,5.07
2023-09-05T17:02:17.471Z,3.83
2023-09-05T17:04:46.062Z,5.38
2023-09-05T17:07:21.601Z,5.78
2023-09-05T17:09:51.721Z,4.93
2023-09-05T17:12:20.867Z,6.35
2023-09-05T17:14:49.755Z,6.65
2023-09-05T17:17:18.288Z,4.90
2023-09-05T17:19:47.726Z,6.55
2023-09-05T17:22:18.474Z,7.60
2023-09-05T17:24:48.364Z,5.10
2023-09-05T17:27:17.120Z,5.68
2023-09-05T17:29:46.209Z,3.90
2023-09-05T17:32:14.766Z,4.80
2023-09-05T17:34:43.286Z,5.07
2023-09-05T17:37:14.658Z,3.13
2023-09-05T17:39:44.733Z,5.45
2023-09-05T17:42:13.335Z,4.05
2023-09-05T17:44:41.771Z,5.70
2023-09-05T17:47:10.319Z,4.80
2023-09-05T17:49:38.783Z,4.88
2023-09-05T17:52:08.263Z,4.57
2023-09-05T17:54:37.000Z,4.47
2023-09-05T17:57:07.496Z,4.25
2023-09-05T17:59:41.745Z,2.95
2023-09-05T18:02:10.624Z,4.30
2023-09-05T18:04:39.467Z,3.55
2023-09-05T18:07:08.263Z,4.43
2023-09-05T18:09:37.980Z,3.30
2023-09-05T18:12:08.606Z,6.53
2023-09-05T18:14:37.546Z,4.63
2023-09-05T18:17:08.801Z,2.85
2023-09-05T18:19:37.456Z,4.05
2023-09-05T18:22:06.369Z,4.57
2023-09-05T18:24:35.027Z,3.30
2023-09-05T18:27:05.749Z,5.63
2023-09-05T18:29:36.343Z,4.10
2023-09-05T18:32:05.364Z,5.50
2023-09-05T18:34:37.873Z,5.78
2023-09-05T18:37:06.857Z,5.15
2023-09-05T18:39:35.988Z,5.25
2023-09-05T18:42:07.298Z,6.07
2023-09-05T18:44:37.269Z,4.38
2023-09-05T18:47:08.644Z,5.78
2023-09-05T18:49:37.884Z,6.93
2023-09-05T18:52:08.558Z,5.30
2023-09-05T18:54:39.755Z,7.13
2023-09-05T18:57:10.982Z,6.10
2023-09-05T18:59:40.888Z,6.03
2023-09-05T19:02:11.457Z,4.68
2023-09-05T19:04:40.409Z,5.07
2023-09-05T19:07:10.268Z,5.03
2023-09-05T19:09:40.863Z,6.47
2023-09-05T19:12:09.591Z,7.80
2023-09-05T19:14:38.020Z,6.97
2023-09-05T19:17:08.157Z,9.07
2023-09-05T19:19:37.502Z,7.25
2023-09-05T19:22:07.910Z,6.55
2023-09-05T19:24:37.777Z,7.63
2023-09-05T19:27:07.129Z,4.32
2023-09-05T19:29:35.928Z,7.50
2023-09-05T19:32:04.431Z,6.25
2023-09-05T19:34:35.286Z,5.28
2023-09-05T19:37:03.901Z,7.32
2023-09-05T19:39:32.398Z,5.10
2023-09-05T19:42:00.943Z,5.68
2023-09-05T19:44:29.430Z,7.18
2023-09-05T19:46:58.011Z,5.43
2023-09-05T19:49:26.452Z,7.78
2023-09-05T19:51:56.531Z,6.50
2023-09-05T19:54:25.104Z,6.07
2023-09-05T19:56:53.769Z,6.88
2023-09-05T19:59:23.552Z,9.15
2023-09-05T20:01:52.372Z,7.00
2023-09-05T20:04:23.199Z,8.40
2023-09-05T20:06:53.556Z,9.25
2023-09-05T20:09:23.916Z,8.05
2023-09-05T20:11:53.083Z,8.05
2023-09-05T20:14:21.719Z,6.22
2023-09-05T20:16:50.195Z,7.38
2023-09-05T20:19:18.698Z,6.82
2023-09-05T20:21:47.286Z,6.20
2023-09-05T20:24:15.963Z,6.22
2023-09-05T20:26:46.656Z,7.07
2023-09-05T20:29:15.133Z,9.40
2023-09-05T20:31:43.680Z,4.88
2023-09-05T20:34:13.590Z,5.85
2023-09-05T20:36:44.383Z,7.00
2023-09-05T20:39:13.114Z,8.70
2023-09-05T20:41:41.592Z,6.22
2023-09-05T20:44:11.506Z,7.15
2023-09-05T20:46:41.706Z,7.38
2023-09-05T20:49:10.312Z,8.32
2023-09-05T20:51:40.162Z,6.55
2023-09-05T20:54:12.228Z,5.30
2023-09-05T20:56:40.755Z,7.03
2023-09-05T20:59:09.728Z,5.82
2023-09-05T21:01:39.945Z,8.07
2023-09-05T21:04:09.408Z,8.27
2023-09-05T21:06:38.215Z,8.80
2023-09-05T21:09:07.114Z,6.65
2023-09-05T21:11:35.755Z,7.43
2023-09-05T21:14:04.199Z,7.95
2023-09-05T21:16:32.602Z,6.30
2023-09-05T21:19:02.533Z,5.53
2023-09-05T21:21:33.548Z,6.20
2023-09-05T21:24:02.126Z,8.07
2023-09-05T21:26:30.477Z,5.60
2023-09-05T21:28:58.928Z,8.27
2023-09-05T21:31:27.459Z,8.52
2023-09-05T21:33:56.270Z,6.50
2023-09-05T21:36:26.302Z,8.57
2023-09-05T21:38:54.764Z,7.82
2023-09-05T21:41:23.251Z,9.25
2023-09-05T21:43:51.732Z,7.70
2023-09-05T21:46:21.351Z,9.05
2023-09-05T21:48:49.917Z,6.60
2023-09-05T21:51:18.623Z,8.00
2023-09-05T21:53:48.716Z,8.25
2023-09-05T21:56:17.640Z,5.70
2023-09-05T21:58:46.084Z,6.70
2023-09-05T22:01:14.543Z,8.88
2023-09-05T22:03:43.020Z,8.20
2023-09-05T22:06:11.430Z,7.07
2023-09-05T22:08:41.032Z,7.15
2023-09-05T22:11:10.951Z,6.30
2023-09-05T22:13:40.636Z,7.43
2023-09-05T22:16:10.768Z,8.68
2023-09-05T22:18:43.087Z,6.18
2023-09-05T22:21:12.471Z,8.07
2023-09-05T22:23:40.902Z,8.35
2023-09-05T22:26:10.718Z,8.02
2023-09-05T22:28:39.247Z,6.95
2023-09-05T22:31:07.657Z,7.30
2023-09-05T22:33:37.381Z,8.05
2023-09-05T22:36:06.561Z,6.18
2023-09-05T22:38:35.303Z,5.80
2023-09-05T22:41:03.626Z,7.07
2023-09-05T22:43:34.066Z,8.48
2023-09-05T22:46:02.628Z,6.63
2023-09-05T22:48:31.406Z,7.20
2023-09-05T22:51:00.080Z,6.38
2023-09-05T22:53:28.553Z,7.63
2023-09-05T22:56:10.343Z,6.97
2023-09-05T22:58:40.544Z,6.78
2023-09-05T23:01:09.939Z,6.55
2023-09-05T23:03:39.384Z,7.15
2023-09-05T23:06:08.675Z,8.60
2023-09-05T23:08:37.757Z,6.70
2023-09-05T23:11:06.467Z,6.25
2023-09-05T23:13:38.119Z,9.02
2023-09-05T23:16:08.407Z,8.00
2023-09-05T23:18:38.838Z,7.80
2023-09-05T23:21:08.244Z,8.20
2023-09-05T23:23:37.095Z,7.20
2023-09-05T23:26:07.153Z,8.80
2023-09-05T23:28:36.521Z,8.40
2023-09-05T23:31:05.014Z,8.10
2023-09-05T23:33:34.849Z,7.03
2023-09-05T23:36:03.446Z,8.25
2023-09-05T23:38:32.271Z,8.55
2023-09-05T23:41:00.658Z,9.75
2023-09-05T23:43:30.183Z,7.35
2023-09-05T23:45:58.702Z,7.72
2023-09-05T23:48:28.437Z,6.97
2023-09-05T23:50:58.584Z,6.07
2023-09-05T23:53:28.406Z,10.13
2023-09-05T23:55:57.000Z,10.45
2023-09-05T23:58:26.640Z,8.20
